Time;durP1;ratioP1;P1;durP2;ratioP2;P2;SDS_P1;SDS_P2;PMS_P1;PMS_P2;Temp;Humidity;BMP_temperature;BMP_pressure;BME280_temperature;BME280_humidity;BME280_pressure;Samples;Min_cycle;Max_cycle;Signal;HPM_P1;HPM_P2
2022/03/16 00:00:19;;;;;;;27.98;16.98;;;;;;;3.09;80.52;102381.50;5106211;28;20036;-65
2022/03/16 00:02:48;;;;;;;28.15;17.30;;;;;;;3.07;80.29;102386.69;5092099;28;20043;-65
2022/03/16 00:05:17;;;;;;;28.17;17.48;;;;;;;3.06;80.16;102378.81;5093719;28;20037;-65
2022/03/16 00:07:44;;;;;;;28.05;17.40;;;;;;;3.02;80.08;102375.25;5093647;28;20088;-65
2022/03/16 00:10:12;;;;;;;24.52;15.23;;;;;;;3.02;80.11;102384.81;5094673;28;20048;-66
2022/03/16 00:12:42;;;;;;;28.73;16.50;;;;;;;2.98;79.95;102377.75;5096766;27;20043;-68
2022/03/16 00:15:10;;;;;;;26.48;16.40;;;;;;;2.96;80.10;102380.31;5088166;28;20040;-66
2022/03/16 00:17:37;;;;;;;31.90;17.83;;;;;;;2.94;80.46;102382.00;5095784;28;20047;-66
2022/03/16 00:20:05;;;;;;;35.13;19.80;;;;;;;2.99;81.17;102383.00;5099376;28;20046;-68
2022/03/16 00:22:33;;;;;;;36.47;20.83;;;;;;;3.05;82.33;102383.16;5092437;28;20753;-65
2022/03/16 00:25:01;;;;;;;36.63;21.25;;;;;;;3.09;82.31;102390.22;5092402;28;20037;-68
2022/03/16 00:27:29;;;;;;;36.13;19.67;;;;;;;3.15;82.30;102389.50;5103632;28;20049;-68
2022/03/16 00:29:56;;;;;;;40.22;22.98;;;;;;;3.19;82.46;102388.72;5097817;27;20055;-66
2022/03/16 00:32:23;;;;;;;34.92;20.20;;;;;;;3.21;82.27;102389.66;5092060;27;20045;-66
2022/03/16 00:34:50;;;;;;;31.77;19.60;;;;;;;3.19;81.71;102393.06;5093700;28;20043;-66
2022/03/16 00:37:20;;;;;;;30.05;18.38;;;;;;;3.13;81.25;102396.41;5092644;28;20124;-64
2022/03/16 00:39:47;;;;;;;29.30;17.33;;;;;;;3.07;81.02;102401.44;5102081;28;20521;-65
2022/03/16 00:42:14;;;;;;;29.00;16.90;;;;;;;2.98;80.72;102396.88;5095441;28;20048;-65
2022/03/16 00:44:41;;;;;;;25.10;16.10;;;;;;;2.89;80.52;102399.25;5093982;28;20478;-66
2022/03/16 00:47:09;;;;;;;28.27;17.52;;;;;;;2.82;80.48;102403.41;5092783;28;20049;-66
2022/03/16 00:49:37;;;;;;;29.00;17.90;;;;;;;2.77;80.48;102405.88;5095347;27;20779;-66
2022/03/16 00:52:05;;;;;;;32.03;19.40;;;;;;;2.77;81.64;102400.69;5097324;27;20051;-66
2022/03/16 00:54:32;;;;;;;34.97;20.05;;;;;;;2.83;82.80;102396.47;5098057;28;20063;-67
2022/03/16 00:57:01;;;;;;;32.55;20.10;;;;;;;2.85;82.45;102405.22;5092324;28;20036;-65
2022/03/16 00:59:29;;;;;;;31.60;19.38;;;;;;;2.86;82.02;102401.75;5095767;28;20098;-65
2022/03/16 01:01:57;;;;;;;30.85;17.67;;;;;;;2.84;81.74;102398.22;5092935;28;20044;-66
2022/03/16 01:04:24;;;;;;;34.85;18.15;;;;;;;2.82;81.52;102402.50;5094748;28;20071;-65
2022/03/16 01:06:54;;;;;;;34.95;19.60;;;;;;;2.79;81.51;102405.91;5092120;28;20467;-67
2022/03/16 01:09:21;;;;;;;30.02;17.98;;;;;;;2.77;81.44;102392.88;5094137;28;20047;-68
2022/03/16 01:11:48;;;;;;;27.42;18.50;;;;;;;2.77;81.39;102399.78;5095452;28;20036;-66
2022/03/16 01:14:17;;;;;;;31.48;18.73;;;;;;;2.80;81.52;102402.47;5094667;28;20044;-66
2022/03/16 01:16:44;;;;;;;28.63;17.60;;;;;;;2.80;81.39;102399.88;5090131;28;20538;-65
2022/03/16 01:19:15;;;;;;;28.25;16.92;;;;;;;2.80;81.09;102397.25;5096498;28;20064;-66
2022/03/16 01:21:44;;;;;;;28.13;18.42;;;;;;;2.80;81.29;102394.66;5106607;27;20048;-67
2022/03/16 01:24:11;;;;;;;27.15;17.98;;;;;;;2.80;81.37;102397.25;5092976;28;20048;-68
2022/03/16 01:26:38;;;;;;;31.10;17.40;;;;;;;2.79;81.51;102396.41;5106990;28;20079;-69
2022/03/16 01:29:07;;;;;;;28.45;17.92;;;;;;;2.80;81.28;102392.06;5107104;28;20060;-68
2022/03/16 01:31:35;;;;;;;33.78;20.20;;;;;;;2.85;82.85;102393.03;5093875;28;20044;-68
2022/03/16 01:34:03;;;;;;;30.92;18.90;;;;;;;2.95;83.09;102395.06;5106596;28;20048;-68
2022/03/16 01:36:30;;;;;;;29.40;19.20;;;;;;;3.02;83.19;102396.09;5103132;28;20041;-68
2022/03/16 01:38:58;;;;;;;27.75;17.85;;;;;;;3.05;82.89;102400.53;5096032;28;20036;-68
2022/03/16 01:41:25;;;;;;;33.42;19.45;;;;;;;3.07;83.33;102389.31;5098271;28;20041;-68
2022/03/16 01:43:56;;;;;;;29.92;18.85;;;;;;;3.10;83.89;102389.34;5096317;27;20040;-68
2022/03/16 01:46:24;;;;;;;30.23;18.80;;;;;;;3.09;83.28;102392.84;5101033;28;20041;-67
2022/03/16 01:48:52;;;;;;;31.52;19.00;;;;;;;3.13;83.58;102388.56;5114080;27;20045;-67
2022/03/16 01:51:22;;;;;;;28.65;19.40;;;;;;;3.22;84.32;102377.47;5096476;28;20044;-67
2022/03/16 01:53:50;;;;;;;28.58;19.23;;;;;;;3.24;84.47;102391.44;5114810;27;20036;-66
2022/03/16 01:56:19;;;;;;;30.05;19.00;;;;;;;3.21;83.86;102380.94;5091853;28;20114;-66
2022/03/16 01:58:46;;;;;;;31.48;18.67;;;;;;;3.20;83.66;102379.19;5107070;28;20048;-66
2022/03/16 02:01:15;;;;;;;31.65;17.95;;;;;;;3.21;84.06;102366.19;5108764;27;20062;-67
2022/03/16 02:03:43;;;;;;;32.95;19.05;;;;;;;3.21;84.02;102371.41;5104459;27;20040;-67
2022/03/16 02:06:10;;;;;;;28.95;18.00;;;;;;;3.18;83.72;102370.44;5124011;27;20623;-66
2022/03/16 02:08:40;;;;;;;30.17;18.67;;;;;;;3.19;84.18;102365.25;5091498;28;20047;-68
2022/03/16 02:11:08;;;;;;;34.03;19.30;;;;;;;3.20;84.55;102364.41;5092727;28;20044;-67
2022/03/16 02:13:36;;;;;;;27.80;18.85;;;;;;;3.21;84.45;102357.47;5094783;28;20494;-67
2022/03/16 02:16:07;;;;;;;34.05;20.55;;;;;;;3.22;84.85;102351.41;5088037;28;20033;-68
2022/03/16 02:18:36;;;;;;;32.90;19.70;;;;;;;3.20;84.58;102345.31;5092058;28;20045;-66
2022/03/16 02:21:07;;;;;;;33.35;19.92;;;;;;;3.20;84.83;102346.19;5092246;27;20044;-66
2022/03/16 02:23:34;;;;;;;29.60;19.73;;;;;;;3.17;84.60;102337.41;5090825;28;20068;-66
2022/03/16 02:26:02;;;;;;;33.20;21.08;;;;;;;3.15;84.75;102341.69;5098123;28;20033;-66
2022/03/16 02:28:29;;;;;;;31.67;20.58;;;;;;;3.14;84.88;102337.31;5091695;28;20051;-67
2022/03/16 02:30:56;;;;;;;32.35;21.02;;;;;;;3.13;85.13;102332.94;5092075;28;20499;-68
2022/03/16 02:33:23;;;;;;;33.97;20.75;;;;;;;3.14;85.11;102326.91;5087035;28;20036;-67
2022/03/16 02:35:51;;;;;;;32.78;21.05;;;;;;;3.14;85.45;102325.19;5093156;28;20048;-67
2022/03/16 02:38:18;;;;;;;37.03;22.13;;;;;;;3.16;85.57;102327.81;5090453;28;20087;-67
2022/03/16 02:40:45;;;;;;;35.47;21.90;;;;;;;3.18;85.46;102334.81;5091023;28;20048;-68
2022/03/16 02:43:12;;;;;;;37.00;22.70;;;;;;;3.17;85.53;102335.66;5095561;28;20044;-69
2022/03/16 02:45:39;;;;;;;38.65;23.15;;;;;;;3.17;85.11;102340.00;5090116;28;20515;-68
2022/03/16 02:48:06;;;;;;;36.72;23.80;;;;;;;3.18;85.52;102340.03;5098745;28;20044;-67
2022/03/16 02:50:34;;;;;;;36.50;22.85;;;;;;;3.19;85.91;102333.13;5095417;27;20048;-67
2022/03/16 02:53:01;;;;;;;35.10;22.92;;;;;;;3.22;85.93;102333.16;5096816;28;20063;-67
2022/03/16 02:55:44;;;;;;;39.08;22.58;;;;;;;3.23;86.07;102341.03;5096140;28;21135;-67
2022/03/16 02:58:13;;;;;;;35.22;23.02;;;;;;;3.24;85.85;102341.91;5086159;28;20194;-67
2022/03/16 03:00:41;;;;;;;32.72;22.00;;;;;;;3.21;86.07;102334.91;5096618;28;20039;-67
2022/03/16 03:03:09;;;;;;;36.78;22.48;;;;;;;3.20;85.90;102340.09;5120235;27;20049;-66
2022/03/16 03:05:38;;;;;;;37.38;22.60;;;;;;;3.17;85.79;102334.81;5091700;28;20112;-68
2022/03/16 03:08:05;;;;;;;38.33;23.23;;;;;;;3.14;85.79;102334.72;5094906;28;20040;-68
2022/03/16 03:10:32;;;;;;;37.35;23.80;;;;;;;3.13;85.75;102343.38;5090215;28;20037;-69
2022/03/16 03:12:59;;;;;;;36.88;22.65;;;;;;;3.12;86.03;102345.13;5100325;28;20041;-68
2022/03/16 03:15:26;;;;;;;32.53;21.95;;;;;;;3.10;86.20;102349.41;5097305;28;20087;-67
2022/03/16 03:17:53;;;;;;;38.03;23.63;;;;;;;3.11;86.21;102341.59;5100515;28;20068;-67
2022/03/16 03:20:20;;;;;;;35.78;22.42;;;;;;;3.11;86.48;102335.53;5094022;28;20064;-67
2022/03/16 03:22:48;;;;;;;38.45;24.48;;;;;;;3.14;86.37;102337.31;5101207;28;20051;-68
2022/03/16 03:25:15;;;;;;;39.95;23.42;;;;;;;3.13;86.74;102331.25;5096713;28;20044;-66
2022/03/16 03:27:43;;;;;;;39.80;25.02;;;;;;;3.14;86.71;102330.41;5103262;28;20136;-66
2022/03/16 03:30:11;;;;;;;39.15;24.15;;;;;;;3.15;86.80;102321.75;5098035;28;20043;-67
2022/03/16 03:32:38;;;;;;;37.17;23.88;;;;;;;3.17;86.87;102321.78;5094212;27;20048;-67
2022/03/16 03:35:07;;;;;;;38.65;23.85;;;;;;;3.19;87.10;102317.47;5087940;28;20131;-68
2022/03/16 03:37:36;;;;;;;37.05;23.38;;;;;;;3.20;86.86;102320.13;5093372;28;20045;-66
2022/03/16 03:40:05;;;;;;;36.03;23.23;;;;;;;3.23;87.07;102320.19;5095372;28;20047;-67
2022/03/16 03:42:33;;;;;;;36.97;23.17;;;;;;;3.25;87.24;102312.41;5096512;27;20509;-68
2022/03/16 03:45:02;;;;;;;38.63;24.05;;;;;;;3.28;86.91;102309.88;5093390;28;20059;-67
2022/03/16 03:47:29;;;;;;;38.10;23.48;;;;;;;3.31;86.90;102311.66;5092727;28;20037;-66
2022/03/16 03:49:56;;;;;;;41.10;23.98;;;;;;;3.34;87.05;102316.97;5096522;28;20079;-66
2022/03/16 03:52:23;;;;;;;37.88;23.90;;;;;;;3.33;86.83;102310.84;5092721;28;20121;-67
2022/03/16 03:54:50;;;;;;;40.25;23.48;;;;;;;3.34;86.54;102314.34;5096705;28;20092;-67
2022/03/16 03:57:18;;;;;;;39.75;23.23;;;;;;;3.35;86.80;102314.38;5097068;27;20553;-66
2022/03/16 03:59:45;;;;;;;38.90;23.85;;;;;;;3.35;86.81;102309.16;5097488;28;20041;-66
2022/03/16 04:02:12;;;;;;;41.67;24.17;;;;;;;3.36;86.74;102313.53;5098695;28;20044;-66
2022/03/16 04:04:39;;;;;;;40.90;24.30;;;;;;;3.37;86.86;102317.91;5095142;28;20048;-66
2022/03/16 04:07:06;;;;;;;37.45;23.45;;;;;;;3.37;86.75;102311.78;5095583;27;20040;-66
2022/03/16 04:09:35;;;;;;;37.63;22.90;;;;;;;3.38;86.66;102318.78;5093878;28;20032;-68
2022/03/16 04:12:03;;;;;;;41.90;23.80;;;;;;;3.37;86.74;102320.50;5093303;28;20518;-67
2022/03/16 04:14:30;;;;;;;39.38;23.77;;;;;;;3.39;86.52;102323.16;5093031;28;20076;-67
2022/03/16 04:16:59;;;;;;;38.55;23.17;;;;;;;3.39;86.47;102318.84;5097926;28;20053;-68
2022/03/16 04:19:26;;;;;;;36.47;23.08;;;;;;;3.40;86.56;102319.69;5093280;27;20094;-67
2022/03/16 04:21:53;;;;;;;35.75;22.90;;;;;;;3.42;86.48;102325.84;5091470;28;20044;-67
2022/03/16 04:24:20;;;;;;;37.63;22.25;;;;;;;3.42;86.32;102321.50;5094029;28;20102;-68
2022/03/16 04:26:47;;;;;;;36.42;22.02;;;;;;;3.42;86.33;102331.91;5090703;28;20052;-67
2022/03/16 04:29:14;;;;;;;37.28;22.80;;;;;;;3.42;86.14;102337.13;5088851;28;20045;-68
2022/03/16 04:31:42;;;;;;;35.60;21.30;;;;;;;3.39;85.82;102337.09;5090977;28;20123;-67
2022/03/16 04:34:15;;;;;;;33.78;21.73;;;;;;;3.38;85.87;102332.72;5093031;28;20802;-68
2022/03/16 04:36:43;;;;;;;34.90;21.92;;;;;;;3.38;86.04;102334.41;5103974;28;20043;-67
2022/03/16 04:39:10;;;;;;;36.35;21.63;;;;;;;3.36;85.84;102336.09;5098623;27;20040;-68
2022/03/16 04:41:37;;;;;;;32.83;20.67;;;;;;;3.37;85.81;102349.19;5094130;28;20075;-66
2022/03/16 04:44:05;;;;;;;31.42;19.98;;;;;;;3.36;85.78;102346.53;5092622;28;20501;-65
2022/03/16 04:46:32;;;;;;;33.45;20.95;;;;;;;3.34;85.88;102343.91;5085508;28;20054;-65
2022/03/16 04:48:59;;;;;;;33.10;19.85;;;;;;;3.33;85.85;102344.75;5093205;28;20170;-65
2022/03/16 04:51:27;;;;;;;33.22;21.02;;;;;;;3.32;85.80;102344.72;5092692;28;20506;-67
2022/03/16 04:53:54;;;;;;;34.63;20.42;;;;;;;3.29;85.83;102340.31;5094535;28;20041;-68
2022/03/16 04:56:21;;;;;;;33.35;20.65;;;;;;;3.26;85.86;102341.09;5096452;27;20071;-66
2022/03/16 04:58:49;;;;;;;35.58;20.00;;;;;;;3.26;85.83;102327.19;5097475;28;20044;-66
2022/03/16 05:01:16;;;;;;;33.38;18.90;;;;;;;3.25;85.94;102330.66;5088727;28;20063;-66
2022/03/16 05:03:45;;;;;;;32.33;19.83;;;;;;;3.24;85.95;102329.78;5092064;27;20122;-67
2022/03/16 05:06:13;;;;;;;31.27;17.80;;;;;;;3.22;85.89;102333.16;5094602;28;20051;-69
2022/03/16 05:08:41;;;;;;;34.63;19.15;;;;;;;3.22;85.82;102335.78;5093351;28;20055;-70
2022/03/16 05:11:08;;;;;;;32.28;18.50;;;;;;;3.21;85.84;102331.41;5090282;28;20036;-70
2022/03/16 05:13:35;;;;;;;34.45;19.55;;;;;;;3.20;85.87;102330.53;5090852;28;20448;-69
2022/03/16 05:16:03;;;;;;;32.17;18.38;;;;;;;3.20;85.92;102332.28;5099614;28;20044;-70
2022/03/16 05:18:30;;;;;;;28.60;17.80;;;;;;;3.18;86.29;102326.13;5091056;28;20049;-69
2022/03/16 05:20:57;;;;;;;27.05;17.75;;;;;;;3.19;86.05;102327.91;5094160;28;20041;-70
2022/03/16 05:23:25;;;;;;;29.83;18.27;;;;;;;3.16;85.89;102327.81;5093370;28;20044;-69
2022/03/16 05:25:52;;;;;;;29.52;17.67;;;;;;;3.15;85.79;102333.88;5095630;28;20066;-65
2022/03/16 05:28:18;;;;;;;27.70;17.00;;;;;;;3.13;85.67;102335.56;5099697;28;20083;-67
2022/03/16 05:30:46;;;;;;;26.98;17.45;;;;;;;3.12;85.88;102329.47;5092641;28;20035;-66
2022/03/16 05:33:13;;;;;;;29.23;15.80;;;;;;;3.14;86.01;102332.09;5094730;28;20051;-65
2022/03/16 05:35:41;;;;;;;27.92;16.45;;;;;;;3.15;85.91;102341.69;5098536;28;20033;-66
2022/03/16 05:38:12;;;;;;;24.75;15.98;;;;;;;3.17;85.85;102345.22;5095819;28;20045;-66
2022/03/16 05:40:43;;;;;;;26.30;15.50;;;;;;;3.17;85.87;102345.22;5097508;28;20048;-67
2022/03/16 05:43:11;;;;;;;26.25;15.20;;;;;;;3.16;85.84;102335.63;5097593;28;20052;-66
2022/03/16 05:45:39;;;;;;;23.27;14.80;;;;;;;3.15;85.83;102340.00;5091056;28;20044;-66
2022/03/16 05:48:07;;;;;;;29.15;15.20;;;;;;;3.17;85.98;102342.63;5093381;28;20041;-69
2022/03/16 05:50:34;;;;;;;24.33;13.90;;;;;;;3.22;86.27;102341.88;5097296;28;20480;-68
2022/03/16 05:53:03;;;;;;;24.63;14.43;;;;;;;3.41;87.31;102350.16;5096462;27;20036;-67
2022/03/16 05:55:30;;;;;;;20.50;12.57;;;;;;;3.60;86.43;102353.16;5091912;28;20119;-68
2022/03/16 05:57:58;;;;;;;18.90;12.43;;;;;;;3.69;85.77;102350.78;5084761;28;20041;-66
2022/03/16 06:00:25;;;;;;;22.67;13.20;;;;;;;3.77;84.75;102350.94;5100513;27;20040;-68
2022/03/16 06:02:52;;;;;;;22.05;13.18;;;;;;;3.79;84.70;102347.53;5097857;28;20048;-68
2022/03/16 06:05:24;;;;;;;20.02;13.00;;;;;;;3.85;84.32;102346.78;5083918;28;20040;-69
2022/03/16 06:07:53;;;;;;;21.40;12.77;;;;;;;3.91;83.82;102349.53;5090514;28;20043;-69
2022/03/16 06:10:20;;;;;;;22.35;11.45;;;;;;;4.01;84.73;102350.59;5103676;28;20040;-68
2022/03/16 06:13:04;;;;;;;16.92;10.80;;;;;;;4.17;83.99;102349.19;5096686;28;20439;-68
2022/03/16 06:15:43;;;;;;;17.50;11.38;;;;;;;4.34;83.73;102346.91;5094038;27;20573;-67
2022/03/16 06:18:11;;;;;;;17.10;10.40;;;;;;;4.57;83.03;102344.75;5097784;28;20103;-69
2022/03/16 06:20:39;;;;;;;16.10;10.43;;;;;;;4.72;81.14;102348.50;5092197;28;20064;-67
2022/03/16 06:23:06;;;;;;;15.82;9.95;;;;;;;4.86;81.36;102341.78;5090220;28;20044;-67
2022/03/16 06:25:38;;;;;;;16.95;10.10;;;;;;;5.20;79.77;102336.22;5090174;28;20041;-68
2022/03/16 06:28:05;;;;;;;15.98;9.32;;;;;;;5.40;78.25;102341.78;5091026;28;20135;-70
2022/03/16 06:30:33;;;;;;;15.57;10.25;;;;;;;5.49;77.78;102346.28;5074555;28;20047;-69
2022/03/16 06:33:00;;;;;;;17.98;10.95;;;;;;;5.49;77.17;102341.91;5091404;28;20044;-68
2022/03/16 06:35:27;;;;;;;17.10;10.50;;;;;;;5.31;76.82;102352.09;5089632;28;20050;-68
2022/03/16 06:37:54;;;;;;;15.80;10.60;;;;;;;5.11;77.21;102353.53;5092875;28;20761;-68
2022/03/16 06:40:21;;;;;;;17.20;11.48;;;;;;;5.02;77.77;102348.16;5090072;28;20048;-69
2022/03/16 06:42:56;;;;;;;19.95;11.15;;;;;;;5.01;78.19;102351.59;5088135;28;20048;-68
2022/03/16 06:45:26;;;;;;;20.10;11.98;;;;;;;4.99;78.45;102358.53;5092533;28;20036;-68
2022/03/16 06:47:56;;;;;;;19.02;12.73;;;;;;;4.99;78.54;102353.31;5094736;28;20052;-69
2022/03/16 06:50:26;;;;;;;18.92;12.50;;;;;;;5.06;78.59;102356.91;5091041;28;20115;-68
2022/03/16 06:52:54;;;;;;;19.00;12.77;;;;;;;5.07;78.91;102359.56;5089416;28;20544;-68
2022/03/16 06:55:21;;;;;;;23.15;12.65;;;;;;;5.07;78.53;102370.03;5093397;28;20067;-68
2022/03/16 06:57:49;;;;;;;24.58;14.00;;;;;;;5.10;78.70;102362.22;5093889;27;20078;-67
2022/03/16 07:00:17;;;;;;;22.05;13.57;;;;;;;5.12;78.60;102370.09;5094205;28;20843;-68
2022/03/16 07:02:54;;;;;;;18.45;13.18;;;;;;;5.19;78.38;102366.75;5095279;28;20991;-67
2022/03/16 07:05:29;;;;;;;21.67;13.43;;;;;;;5.28;78.16;102369.50;5091364;28;20053;-68
2022/03/16 07:07:59;;;;;;;20.95;13.07;;;;;;;5.37;77.90;102371.41;5094622;28;20090;-68
2022/03/16 07:10:28;;;;;;;21.45;13.40;;;;;;;5.48;77.82;102373.28;5095005;28;20080;-69
2022/03/16 07:12:56;;;;;;;20.38;12.00;;;;;;;5.53;77.33;102369.00;5095366;28;20052;-68
2022/03/16 07:15:25;;;;;;;18.77;11.50;;;;;;;5.65;77.15;102368.28;5094608;28;20049;-68
2022/03/16 07:17:52;;;;;;;18.70;11.45;;;;;;;5.78;76.77;102366.75;5093915;28;20048;-68
2022/03/16 07:20:20;;;;;;;20.60;11.95;;;;;;;5.90;76.42;102364.31;5093806;28;20117;-69
2022/03/16 07:23:00;;;;;;;16.08;10.52;;;;;;;6.03;75.77;102354.91;5109864;28;20037;-68
2022/03/16 07:25:28;;;;;;;20.88;11.02;;;;;;;6.13;75.95;102348.94;5092983;28;20041;-68
2022/03/16 07:27:56;;;;;;;16.98;10.52;;;;;;;6.27;75.54;102350.81;5117894;27;20075;-69
2022/03/16 07:30:23;;;;;;;17.50;10.85;;;;;;;6.39;74.98;102344.84;5094871;28;20977;-69
2022/03/16 07:32:51;;;;;;;19.38;10.32;;;;;;;6.45;74.79;102339.66;5111835;27;20040;-69
2022/03/16 07:35:24;;;;;;;16.65;9.93;;;;;;;6.53;74.64;102338.00;5115085;27;20047;-69
2022/03/16 07:37:51;;;;;;;20.05;10.15;;;;;;;6.61;73.77;102335.47;5114798;27;20033;-68
2022/03/16 07:40:18;;;;;;;15.23;9.73;;;;;;;6.74;74.08;102325.97;5116116;27;20063;-69
2022/03/16 07:42:48;;;;;;;17.15;9.88;;;;;;;6.88;73.50;102320.88;5115345;27;20064;-69
2022/03/16 07:45:18;;;;;;;18.35;9.20;;;;;;;7.01;72.70;102319.25;5116402;27;20051;-67
2022/03/16 07:47:48;;;;;;;16.50;8.80;;;;;;;7.11;72.55;102314.06;5111094;27;20494;-68
2022/03/16 07:50:19;;;;;;;17.20;8.60;;;;;;;7.27;71.87;102311.59;5103337;27;20051;-70
2022/03/16 07:52:47;;;;;;;13.60;8.85;;;;;;;7.33;71.64;102309.00;5115758;28;20040;-69
2022/03/16 07:55:15;;;;;;;13.43;8.80;;;;;;;7.44;71.82;102298.53;5115833;28;20044;-69
2022/03/16 07:57:43;;;;;;;14.10;8.73;;;;;;;7.56;71.04;102303.00;5112977;27;20044;-69
2022/03/16 08:00:13;;;;;;;11.32;7.82;;;;;;;7.61;70.07;102296.91;5114682;27;20046;-68
2022/03/16 08:02:43;;;;;;;12.73;7.97;;;;;;;7.67;69.51;102303.94;5114411;27;20101;-67
2022/03/16 08:05:12;;;;;;;14.25;8.27;;;;;;;7.69;70.16;102304.81;5112796;27;20056;-69
2022/03/16 08:07:41;;;;;;;16.77;8.50;;;;;;;7.80;70.52;102306.63;5109682;27;20040;-67
2022/03/16 08:10:09;;;;;;;16.38;9.32;;;;;;;7.94;70.45;102307.56;5110829;28;20040;-68
2022/03/16 08:12:36;;;;;;;14.40;8.50;;;;;;;8.07;70.25;102300.59;5114732;27;20051;-67
2022/03/16 08:15:06;;;;;;;16.25;9.07;;;;;;;8.22;70.13;102305.03;5114728;27;20048;-68
2022/03/16 08:17:33;;;;;;;12.85;8.25;;;;;;;8.37;69.73;102306.81;5114540;27;22203;-69
2022/03/16 08:20:01;;;;;;;13.68;7.20;;;;;;;8.46;68.18;102304.22;5115133;28;20067;-67
2022/03/16 08:22:31;;;;;;;13.63;8.48;;;;;;;8.58;68.69;102308.66;5114985;27;20450;-69
2022/03/16 08:25:02;;;;;;;13.32;8.38;;;;;;;8.70;68.54;102298.13;5115137;27;20051;-71
2022/03/16 08:27:31;;;;;;;16.17;7.50;;;;;;;8.90;67.16;102299.03;5104489;28;20070;-69
2022/03/16 08:29:58;;;;;;;11.70;8.48;;;;;;;9.00;66.66;102304.28;5111332;27;20062;-69
2022/03/16 08:32:26;;;;;;;14.50;7.85;;;;;;;9.10;65.92;102291.16;5113354;27;20041;-69
2022/03/16 08:34:53;;;;;;;13.80;8.43;;;;;;;9.16;66.16;102299.03;5113950;28;20028;-69
2022/03/16 08:37:20;;;;;;;12.60;7.75;;;;;;;9.26;64.86;102292.00;5114067;28;20044;-68
2022/03/16 08:39:49;;;;;;;11.98;7.72;;;;;;;9.26;64.25;102292.00;5112695;28;20044;-69
2022/03/16 08:42:16;;;;;;;12.77;7.43;;;;;;;9.30;63.97;102302.53;5114579;27;20048;-69
2022/03/16 08:44:48;;;;;;;11.48;7.35;;;;;;;9.28;63.92;102295.47;5114502;28;20081;-69
2022/03/16 08:47:16;;;;;;;12.10;8.27;;;;;;;9.33;64.34;102299.88;5116845;27;20115;-69
2022/03/16 08:49:51;;;;;;;12.32;8.20;;;;;;;9.48;64.53;102290.19;5112825;27;20167;-67
2022/03/16 08:52:19;;;;;;;14.60;7.80;;;;;;;9.62;63.75;102293.66;5113437;28;20050;-69
2022/03/16 08:54:47;;;;;;;12.77;7.78;;;;;;;9.69;62.86;102298.91;5112115;28;20082;-69
2022/03/16 08:57:15;;;;;;;13.82;8.15;;;;;;;9.75;63.17;102286.59;5112985;27;20048;-69
2022/03/16 08:59:42;;;;;;;12.85;7.72;;;;;;;9.81;62.94;102287.44;5112121;27;20036;-69
2022/03/16 09:02:10;;;;;;;13.30;7.65;;;;;;;9.85;62.80;102286.56;5113295;28;20047;-68
2022/03/16 09:04:37;;;;;;;10.88;7.30;;;;;;;9.87;62.01;102276.91;5111274;28;20048;-69
2022/03/16 09:07:05;;;;;;;10.57;8.20;;;;;;;9.96;62.70;102276.88;5112890;28;20070;-68
2022/03/16 09:09:41;;;;;;;13.07;8.23;;;;;;;10.03;61.75;102280.31;5106218;27;20044;-68
2022/03/16 09:12:09;;;;;;;11.93;8.20;;;;;;;10.14;61.95;102281.13;5113535;28;20071;-69
2022/03/16 09:14:39;;;;;;;24.25;9.32;;;;;;;10.35;61.28;102280.16;5113441;27;20043;-68
2022/03/16 09:17:10;;;;;;;16.65;8.88;;;;;;;10.50;60.99;102273.03;5112659;27;20132;-70
2022/03/16 09:19:38;;;;;;;15.00;8.77;;;;;;;10.66;60.28;102268.53;5112284;28;20494;-70
2022/03/16 09:22:06;;;;;;;15.20;8.15;;;;;;;10.78;59.73;102265.81;5113225;28;20062;-70
2022/03/16 09:24:33;;;;;;;12.00;7.78;;;;;;;10.88;59.78;102264.84;5112807;28;20040;-70
2022/03/16 09:27:01;;;;;;;12.80;7.88;;;;;;;11.02;59.17;102264.69;5113270;27;20105;-69
2022/03/16 09:29:30;;;;;;;17.08;8.20;;;;;;;11.25;59.34;102271.53;5112469;27;20040;-69
2022/03/16 09:32:09;;;;;;;12.23;7.88;;;;;;;11.40;57.53;102272.22;5115545;27;20043;-68
2022/03/16 09:34:38;;;;;;;11.18;7.68;;;;;;;11.50;56.92;102268.59;5115848;27;20050;-69
2022/03/16 09:37:07;;;;;;;23.45;8.35;;;;;;;11.56;55.90;102265.91;5096074;28;20044;-69
2022/03/16 09:39:36;;;;;;;12.35;8.48;;;;;;;11.60;56.30;102264.97;5118329;28;20779;-69
2022/03/16 09:42:08;;;;;;;76.95;10.80;;;;;;;11.64;54.89;102266.69;5120768;27;20067;-70
2022/03/16 09:44:38;;;;;;;19.30;8.40;;;;;;;11.71;55.11;102256.03;5125319;27;20036;-68
2022/03/16 09:47:08;;;;;;;43.80;8.68;;;;;;;11.62;54.72;102259.69;5117300;27;20044;-67
2022/03/16 09:49:38;;;;;;;10.63;6.53;;;;;;;11.63;53.99;102246.44;5123962;27;20132;-69
2022/03/16 09:52:09;;;;;;;11.50;6.65;;;;;;;11.67;54.25;102260.47;5122879;27;20104;-70
2022/03/16 09:54:38;;;;;;;11.88;7.13;;;;;;;11.75;54.30;102248.03;5120096;27;20036;-69
2022/03/16 09:57:06;;;;;;;9.52;6.80;;;;;;;11.80;53.52;102246.22;5119424;27;20664;-70
2022/03/16 09:59:33;;;;;;;18.52;7.03;;;;;;;11.91;53.55;102250.50;5122271;27;20040;-68
2022/03/16 10:02:09;;;;;;;11.25;7.30;;;;;;;12.02;52.85;102248.63;5117536;27;20865;-70
2022/03/16 10:04:39;;;;;;;21.00;6.85;;;;;;;12.10;52.23;102254.66;5112249;28;20052;-70
2022/03/16 10:07:06;;;;;;;10.80;6.75;;;;;;;12.19;52.63;102247.50;5112982;28;20503;-70
2022/03/16 10:15:15;;;;;;;10.07;6.70;;;;;;;12.29;51.45;102246.47;5106864;28;20537;-70
2022/03/16 10:17:57;;;;;;;17.15;6.93;;;;;;;12.42;50.97;102237.47;5112761;27;20074;-70
2022/03/16 10:20:31;;;;;;;15.27;6.68;;;;;;;12.56;52.01;102246.94;5112039;28;20079;-69
2022/03/16 10:23:14;;;;;;;10.90;6.07;;;;;;;12.70;51.52;102239.63;5112348;28;20040;-70
2022/03/16 10:25:50;;;;;;;9.90;6.32;;;;;;;12.83;50.69;102224.41;5112006;27;20044;-70
2022/03/16 10:28:22;;;;;;;13.25;6.97;;;;;;;12.96;49.93;102237.44;5111808;27;20562;-70
2022/03/16 10:31:07;;;;;;;16.10;6.80;;;;;;;13.00;49.14;102223.25;5111741;28;20043;-70
2022/03/16 10:33:44;;;;;;;9.48;6.78;;;;;;;13.02;49.58;102234.69;5110178;27;20036;-70
2022/03/16 10:36:16;;;;;;;25.63;7.65;;;;;;;13.10;49.36;102219.53;5104574;28;20813;-72
2022/03/16 10:38:58;;;;;;;11.32;6.10;;;;;;;13.23;49.47;102232.56;5111911;27;20044;-69
2022/03/16 10:47:24;;;;;;;11.23;6.70;;;;;;;13.43;48.04;102222.44;5104193;28;20040;-69
2022/03/16 10:50:07;;;;;;;11.00;6.60;;;;;;;13.55;48.13;102229.28;5111449;27;20128;-69
2022/03/16 10:52:34;;;;;;;10.05;6.57;;;;;;;13.61;47.63;102242.38;5102389;27;20036;-70
2022/03/16 10:55:03;;;;;;;20.90;7.70;;;;;;;13.65;47.86;102228.19;5110188;28;20043;-70
2022/03/16 10:57:31;;;;;;;11.50;6.43;;;;;;;13.72;46.77;102225.41;5111860;27;20090;-70
2022/03/16 11:00:01;;;;;;;13.65;7.18;;;;;;;13.85;47.69;102226.00;5111347;27;20122;-70
2022/03/16 11:02:34;;;;;;;9.13;6.13;;;;;;;13.97;47.37;102225.72;5109594;28;20089;-70
2022/03/16 11:05:02;;;;;;;11.20;6.57;;;;;;;14.08;46.10;102225.50;5110185;28;20054;-69
2022/03/16 11:07:31;;;;;;;9.60;6.57;;;;;;;14.13;46.57;102221.84;5111210;28;20062;-70
2022/03/16 11:10:00;;;;;;;11.40;6.60;;;;;;;14.25;47.14;102225.97;5111104;27;20046;-69
2022/03/16 11:15:18;;;;;;;10.25;7.00;;;;;;;14.49;46.14;102213.03;5110882;27;20508;-70
2022/03/16 11:17:45;;;;;;;13.02;6.82;;;;;;;14.59;45.92;102211.88;5111529;27;20120;-69
2022/03/16 11:20:14;;;;;;;15.10;6.75;;;;;;;14.68;45.69;102209.94;5111250;27;20520;-70
2022/03/16 11:25:59;;;;;;;8.93;6.50;;;;;;;14.99;45.32;102196.69;5110711;27;20050;-70
2022/03/16 11:29:00;;;;;;;9.23;6.72;;;;;;;15.13;43.99;102200.78;5107971;28;20036;-70
2022/03/16 11:31:34;;;;;;;8.73;6.03;;;;;;;15.15;43.90;102197.16;5110457;27;20052;-70
2022/03/16 11:34:08;;;;;;;9.60;6.45;;;;;;;15.04;44.33;102196.56;5113633;27;20064;-70
2022/03/16 11:36:41;;;;;;;7.78;6.32;;;;;;;15.01;44.51;102192.22;5114849;27;20055;-70
2022/03/16 11:39:20;;;;;;;7.53;6.13;;;;;;;14.96;44.24;102188.81;5114949;27;20127;-70
2022/03/16 11:41:54;;;;;;;11.70;6.85;;;;;;;15.15;44.45;102188.31;5120620;27;20043;-70
2022/03/16 11:44:25;;;;;;;18.30;6.70;;;;;;;15.35;44.18;102195.72;5114358;27;20044;-69